createdAt,value
2022-08-29T00:00:42.500Z,13.65
2022-08-29T00:01:42.489Z,13.54
2022-08-29T00:02:42.486Z,13.50
2022-08-29T00:03:43.179Z,13.62
2022-08-29T00:04:42.566Z,13.60
2022-08-29T00:05:42.574Z,13.63
2022-08-29T00:06:42.465Z,13.71
2022-08-29T00:07:42.459Z,13.56
2022-08-29T00:08:42.454Z,13.46
2022-08-29T00:09:42.447Z,13.57
2022-08-29T00:10:42.444Z,13.54
2022-08-29T00:11:45.297Z,13.56
2022-08-29T00:12:42.433Z,13.49
2022-08-29T00:13:42.425Z,13.57
2022-08-29T00:14:42.425Z,13.52
2022-08-29T00:15:45.149Z,13.47
2022-08-29T00:16:42.449Z,13.49
2022-08-29T00:17:42.411Z,13.46
2022-08-29T00:18:42.403Z,13.47
2022-08-29T00:19:42.394Z,13.44
2022-08-29T00:20:42.391Z,13.47
2022-08-29T00:21:42.386Z,13.49
2022-08-29T00:22:42.379Z,13.49
2022-08-29T00:23:42.373Z,13.50
2022-08-29T00:24:42.370Z,13.49
2022-08-29T00:25:42.363Z,13.50
2022-08-29T00:26:42.358Z,13.46
2022-08-29T00:27:44.624Z,13.46
2022-08-29T00:28:42.353Z,13.35
2022-08-29T00:29:42.346Z,13.33
2022-08-29T00:30:42.339Z,13.39
2022-08-29T00:31:42.369Z,13.25
2022-08-29T00:32:42.326Z,13.20
2022-08-29T00:33:42.318Z,13.23
2022-08-29T00:34:42.317Z,13.28
2022-08-29T00:35:42.312Z,13.22
2022-08-29T00:36:42.306Z,13.39
2022-08-29T00:37:42.299Z,13.25
2022-08-29T00:38:42.293Z,13.30
2022-08-29T00:39:42.287Z,13.25
2022-08-29T00:40:42.342Z,13.33
2022-08-29T00:41:42.279Z,13.38
2022-08-29T00:42:42.273Z,13.27
2022-08-29T00:43:42.265Z,13.25
2022-08-29T00:44:42.263Z,13.25
2022-08-29T00:45:42.302Z,13.27
2022-08-29T00:46:42.251Z,13.20
2022-08-29T00:47:42.243Z,13.20
2022-08-29T00:48:42.238Z,13.16
2022-08-29T00:49:42.233Z,13.18
2022-08-29T00:50:42.227Z,13.16
2022-08-29T00:51:42.224Z,13.18
2022-08-29T00:52:42.222Z,13.12
2022-08-29T00:53:42.207Z,13.15
2022-08-29T00:54:42.207Z,13.16
2022-08-29T00:55:42.201Z,13.13
2022-08-29T00:56:42.195Z,13.09
2022-08-29T00:57:42.189Z,13.09
2022-08-29T00:58:42.186Z,13.09
2022-08-29T00:59:42.182Z,13.03
2022-08-29T01:00:42.212Z,13.03
2022-08-29T01:01:42.273Z,13.04
2022-08-29T01:02:42.205Z,13.05
2022-08-29T01:03:42.949Z,13.00
2022-08-29T01:04:42.149Z,13.00
2022-08-29T01:05:42.147Z,13.01
2022-08-29T01:06:42.138Z,13.03
2022-08-29T01:07:42.131Z,12.95
2022-08-29T01:08:42.132Z,12.87
2022-08-29T01:09:42.123Z,12.94
2022-08-29T01:10:42.120Z,12.97
2022-08-29T01:11:42.117Z,12.95
2022-08-29T01:12:42.110Z,12.95
2022-08-29T01:13:42.102Z,12.97
2022-08-29T01:14:42.100Z,12.93
2022-08-29T01:15:42.091Z,13.00
2022-08-29T01:16:42.139Z,12.94
2022-08-29T01:17:42.085Z,12.95
2022-08-29T01:18:42.074Z,12.94
2022-08-29T01:19:42.077Z,12.91
2022-08-29T01:20:42.063Z,12.94
2022-08-29T01:21:42.058Z,12.83
2022-08-29T01:22:42.056Z,12.93
2022-08-29T01:23:42.048Z,12.90
2022-08-29T01:24:42.040Z,12.86
2022-08-29T01:25:42.035Z,12.90
2022-08-29T01:26:42.028Z,12.83
2022-08-29T01:27:42.026Z,12.82
2022-08-29T01:28:42.021Z,12.70
2022-08-29T01:29:42.015Z,12.87
2022-08-29T01:30:42.012Z,12.79
2022-08-29T01:31:56.281Z,12.87
2022-08-29T01:32:41.999Z,12.86
2022-08-29T01:33:41.991Z,12.85
2022-08-29T01:34:41.988Z,12.80
2022-08-29T01:35:41.978Z,12.82
2022-08-29T01:36:41.974Z,12.76
2022-08-29T01:37:41.976Z,12.80
2022-08-29T01:38:41.962Z,12.85
2022-08-29T01:39:41.953Z,12.86
2022-08-29T01:40:42.010Z,12.79
2022-08-29T01:41:41.946Z,12.85
2022-08-29T01:42:41.943Z,12.79
2022-08-29T01:43:41.932Z,12.85
2022-08-29T01:44:41.935Z,12.80
2022-08-29T01:45:41.975Z,12.79
2022-08-29T01:46:41.917Z,12.76
2022-08-29T01:47:41.914Z,12.78
2022-08-29T01:48:41.903Z,12.82
2022-08-29T01:49:41.898Z,12.79
2022-08-29T01:50:41.894Z,12.79
2022-08-29T01:51:41.889Z,12.82
2022-08-29T01:52:41.879Z,12.79
2022-08-29T01:53:41.879Z,12.78
2022-08-29T01:54:41.871Z,12.76
2022-08-29T01:55:41.866Z,12.78
2022-08-29T01:56:41.859Z,12.78
2022-08-29T01:57:41.858Z,12.68
2022-08-29T01:58:41.849Z,12.64
2022-08-29T01:59:41.843Z,12.58
2022-08-29T02:00:41.934Z,12.73
2022-08-29T02:01:41.857Z,12.67
2022-08-29T02:02:41.828Z,12.67
2022-08-29T02:03:41.823Z,12.64
2022-08-29T02:04:41.816Z,12.61
2022-08-29T02:05:41.811Z,12.68
2022-08-29T02:06:41.808Z,12.65
2022-08-29T02:07:41.797Z,12.68
2022-08-29T02:08:41.794Z,12.73
2022-08-29T02:09:45.763Z,12.68
2022-08-29T02:10:41.778Z,12.72
2022-08-29T02:11:41.778Z,12.61
2022-08-29T02:12:41.768Z,12.58
2022-08-29T02:13:41.764Z,12.73
2022-08-29T02:14:41.763Z,12.65
2022-08-29T02:15:41.750Z,12.70
2022-08-29T02:16:41.844Z,12.72
2022-08-29T02:17:41.735Z,12.72
2022-08-29T02:18:41.747Z,12.70
2022-08-29T02:19:41.729Z,12.62
2022-08-29T02:20:41.722Z,12.70
2022-08-29T02:21:41.743Z,12.72
2022-08-29T02:22:41.714Z,12.68
2022-08-29T02:23:41.711Z,12.72
2022-08-29T02:24:41.698Z,12.67
2022-08-29T02:25:41.698Z,12.65
2022-08-29T02:26:41.688Z,12.67
2022-08-29T02:27:41.683Z,12.64
2022-08-29T02:28:41.677Z,12.70
2022-08-29T02:29:41.671Z,12.57
2022-08-29T02:30:41.672Z,12.64
2022-08-29T02:31:41.686Z,12.65
2022-08-29T02:32:41.653Z,12.53
2022-08-29T02:33:41.648Z,12.57
2022-08-29T02:34:44.565Z,12.53
2022-08-29T02:35:42.885Z,12.65
2022-08-29T02:36:41.701Z,12.55
2022-08-29T02:37:41.626Z,12.64
2022-08-29T02:38:41.621Z,12.55
2022-08-29T02:39:41.614Z,12.57
2022-08-29T02:40:41.633Z,12.55
2022-08-29T02:41:42.786Z,12.54
2022-08-29T02:42:41.595Z,12.57
2022-08-29T02:43:41.591Z,12.54
2022-08-29T02:44:41.589Z,12.53
2022-08-29T02:45:50.246Z,12.53
2022-08-29T02:47:45.567Z,12.50
2022-08-29T02:48:49.298Z,12.58
2022-08-29T02:50:38.448Z,12.54
2022-08-29T02:51:38.432Z,12.49
2022-08-29T02:52:38.439Z,12.54
2022-08-29T02:53:38.419Z,12.50
2022-08-29T02:54:38.416Z,12.54
2022-08-29T02:55:38.410Z,12.50
2022-08-29T02:56:38.407Z,12.53
2022-08-29T02:57:38.403Z,12.50
2022-08-29T02:58:38.399Z,12.50
2022-08-29T02:59:38.386Z,12.47
2022-08-29T03:00:38.399Z,12.54
2022-08-29T03:01:38.444Z,12.55
2022-08-29T03:02:38.369Z,12.53
2022-08-29T03:03:38.367Z,12.54
2022-08-29T03:04:38.357Z,12.54
2022-08-29T03:05:38.352Z,12.55
2022-08-29T03:06:38.351Z,12.54
2022-08-29T03:07:38.341Z,12.53
2022-08-29T03:08:38.334Z,12.54
2022-08-29T03:09:38.337Z,12.49
2022-08-29T03:10:38.320Z,12.50
2022-08-29T03:11:38.319Z,12.57
2022-08-29T03:12:38.310Z,12.50
2022-08-29T03:13:38.302Z,12.47
2022-08-29T03:14:38.295Z,12.58
2022-08-29T03:15:38.303Z,12.55
2022-08-29T03:16:38.319Z,12.49
2022-08-29T03:17:38.284Z,12.58
2022-08-29T03:18:38.275Z,12.50
2022-08-29T03:19:38.272Z,12.47
2022-08-29T03:20:38.261Z,12.50
2022-08-29T03:21:38.257Z,12.53
2022-08-29T03:22:38.252Z,12.43
2022-08-29T03:23:38.247Z,12.50
2022-08-29T03:24:38.244Z,12.45
2022-08-29T03:25:38.232Z,12.47
2022-08-29T03:26:38.230Z,12.49
2022-08-29T03:27:38.221Z,12.49
2022-08-29T03:28:38.215Z,12.49
2022-08-29T03:29:38.212Z,12.42
2022-08-29T03:30:38.204Z,12.36
2022-08-29T03:31:38.279Z,12.36
2022-08-29T03:32:38.190Z,12.46
2022-08-29T03:33:38.188Z,12.40
2022-08-29T03:34:38.195Z,12.35
2022-08-29T03:35:38.182Z,12.32
2022-08-29T03:36:38.168Z,12.32
2022-08-29T03:37:38.160Z,12.35
2022-08-29T03:38:38.154Z,12.32
2022-08-29T03:39:38.151Z,12.36
2022-08-29T03:40:38.181Z,12.31
2022-08-29T03:41:38.138Z,12.31
2022-08-29T03:42:38.131Z,12.37
2022-08-29T03:43:38.137Z,12.36
2022-08-29T03:44:38.119Z,12.32
2022-08-29T03:45:38.120Z,12.43
2022-08-29T03:46:38.152Z,12.35
2022-08-29T03:47:38.102Z,12.32
2022-08-29T03:48:38.093Z,12.36
2022-08-29T03:49:38.093Z,12.37
2022-08-29T03:50:38.082Z,12.27
2022-08-29T03:51:38.080Z,12.25
2022-08-29T03:52:38.070Z,12.29
2022-08-29T03:53:38.074Z,12.36
2022-08-29T03:54:38.062Z,12.25
2022-08-29T03:55:38.054Z,12.35
2022-08-29T03:56:38.050Z,12.25
2022-08-29T03:57:38.042Z,12.27
2022-08-29T03:58:38.037Z,12.24
2022-08-29T03:59:38.027Z,12.29
2022-08-29T04:00:38.025Z,12.31
2022-08-29T04:01:38.073Z,12.22
2022-08-29T04:02:38.049Z,12.37
2022-08-29T04:03:38.007Z,12.35
2022-08-29T04:04:38.001Z,12.29
2022-08-29T04:05:37.995Z,12.28
2022-08-29T04:06:37.988Z,12.36
2022-08-29T04:07:37.982Z,12.37
2022-08-29T04:08:37.974Z,12.32
2022-08-29T04:09:37.971Z,12.32
2022-08-29T04:10:38.124Z,12.35
2022-08-29T04:11:37.958Z,12.36
2022-08-29T04:12:37.955Z,12.39
2022-08-29T04:13:37.945Z,12.37
2022-08-29T04:14:37.940Z,12.43
2022-08-29T04:15:37.934Z,12.40
2022-08-29T04:16:37.963Z,12.43
2022-08-29T04:17:37.923Z,12.54
2022-08-29T04:18:37.918Z,12.50
2022-08-29T04:19:37.906Z,12.47
2022-08-29T04:20:37.910Z,12.50
2022-08-29T04:21:37.898Z,12.55
2022-08-29T04:22:37.890Z,12.55
2022-08-29T04:23:37.884Z,12.60
2022-08-29T04:24:37.880Z,12.67
2022-08-29T04:25:37.984Z,12.70
2022-08-29T04:26:38.156Z,12.79
2022-08-29T04:27:37.862Z,12.80
2022-08-29T04:28:37.858Z,12.70
2022-08-29T04:29:37.855Z,12.82
2022-08-29T04:30:37.849Z,12.83
2022-08-29T04:31:37.913Z,12.93
2022-08-29T04:32:37.844Z,12.90
2022-08-29T04:33:37.824Z,12.85
2022-08-29T04:34:37.828Z,12.94
2022-08-29T04:35:37.816Z,13.03
2022-08-29T04:36:37.826Z,13.11
2022-08-29T04:37:37.800Z,13.11
2022-08-29T04:38:37.794Z,13.15
2022-08-29T04:39:37.792Z,13.22
2022-08-29T04:40:37.842Z,13.19
2022-08-29T04:41:37.782Z,13.16
2022-08-29T04:42:37.775Z,13.11
2022-08-29T04:43:37.763Z,13.23
2022-08-29T04:44:37.769Z,13.28
2022-08-29T04:45:37.758Z,13.20
2022-08-29T04:46:37.813Z,13.23
2022-08-29T04:47:37.747Z,13.25
2022-08-29T04:48:37.748Z,13.27
2022-08-29T04:49:37.732Z,13.35
2022-08-29T04:50:37.727Z,13.38
2022-08-29T04:51:37.715Z,13.39
2022-08-29T04:52:37.732Z,13.50
2022-08-29T04:53:37.733Z,13.46
2022-08-29T04:54:37.705Z,13.50
2022-08-29T04:55:37.723Z,13.46
2022-08-29T04:56:37.693Z,13.56
2022-08-29T04:57:37.682Z,13.57
2022-08-29T04:58:37.688Z,13.57
2022-08-29T04:59:37.672Z,13.62
2022-08-29T05:00:37.678Z,13.59
2022-08-29T05:01:37.720Z,13.62
2022-08-29T05:02:37.743Z,13.68
2022-08-29T05:03:37.651Z,13.65
2022-08-29T05:04:37.643Z,13.74
2022-08-29T05:05:37.636Z,13.71
2022-08-29T05:06:37.631Z,13.77
2022-08-29T05:07:38.320Z,13.89
2022-08-29T05:08:37.619Z,13.83
2022-08-29T05:09:37.615Z,13.85
2022-08-29T05:10:37.606Z,13.90
2022-08-29T05:11:37.604Z,13.92
2022-08-29T05:12:37.597Z,13.90
2022-08-29T05:13:37.609Z,14.03
2022-08-29T05:14:37.585Z,14.00
2022-08-29T05:15:37.596Z,14.03
2022-08-29T05:16:37.582Z,14.08
2022-08-29T05:17:37.569Z,14.08
2022-08-29T05:18:37.563Z,14.20
2022-08-29T05:19:37.573Z,14.26
2022-08-29T05:20:37.557Z,14.26
2022-08-29T05:21:37.544Z,14.28
2022-08-29T05:22:37.542Z,14.35
2022-08-29T05:23:37.531Z,14.32
2022-08-29T05:24:37.533Z,14.36
2022-08-29T05:25:37.524Z,14.37
2022-08-29T05:26:37.519Z,14.35
2022-08-29T05:27:37.514Z,14.35
2022-08-29T05:28:37.514Z,14.29
2022-08-29T05:29:37.500Z,14.40
2022-08-29T05:30:37.499Z,14.50
2022-08-29T05:31:37.655Z,14.53
2022-08-29T05:32:37.488Z,14.50
2022-08-29T05:33:37.481Z,14.58
2022-08-29T05:34:37.479Z,14.62
2022-08-29T05:35:37.470Z,14.69
2022-08-29T05:36:37.466Z,14.79
2022-08-29T05:37:37.473Z,14.72
2022-08-29T05:38:37.458Z,14.92
2022-08-29T05:39:37.450Z,14.92
2022-08-29T05:40:37.514Z,15.10
2022-08-29T05:41:38.600Z,15.14
2022-08-29T05:42:37.435Z,15.21
2022-08-29T05:43:37.431Z,15.28
2022-08-29T05:44:37.425Z,15.57
2022-08-29T05:45:37.422Z,15.77
2022-08-29T05:46:37.454Z,16.16
2022-08-29T05:47:37.409Z,16.29
2022-08-29T05:48:37.404Z,16.35
2022-08-29T05:49:37.403Z,16.31
2022-08-29T05:50:37.398Z,16.24
2022-08-29T05:51:39.641Z,16.28
2022-08-29T05:52:37.387Z,16.09
2022-08-29T05:53:37.382Z,16.17
2022-08-29T05:54:37.388Z,16.08
2022-08-29T05:55:37.368Z,16.01
2022-08-29T05:56:37.372Z,15.88
2022-08-29T05:57:37.363Z,15.88
2022-08-29T05:58:37.358Z,15.79
2022-08-29T05:59:37.354Z,15.73
2022-08-29T06:00:37.357Z,15.76
2022-08-29T06:01:37.346Z,15.77
2022-08-29T06:02:37.446Z,15.73
2022-08-29T06:03:37.486Z,15.59
2022-08-29T06:04:37.332Z,15.57
2022-08-29T06:05:37.327Z,15.62
2022-08-29T06:06:37.321Z,15.62
2022-08-29T06:07:37.317Z,15.59
2022-08-29T06:08:37.314Z,15.59
2022-08-29T06:09:37.311Z,15.62
2022-08-29T06:10:37.303Z,15.70
2022-08-29T06:11:37.300Z,15.54
2022-08-29T06:12:37.297Z,15.51
2022-08-29T06:13:37.290Z,15.52
2022-08-29T06:14:37.290Z,15.54
2022-08-29T06:15:37.338Z,15.54
2022-08-29T06:16:37.276Z,15.54
2022-08-29T06:17:37.270Z,15.52
2022-08-29T06:18:37.266Z,15.51
2022-08-29T06:19:37.267Z,15.44
2022-08-29T06:20:37.263Z,15.59
2022-08-29T06:21:37.255Z,15.49
2022-08-29T06:22:40.305Z,15.54
2022-08-29T06:23:37.244Z,15.52
2022-08-29T06:24:37.246Z,15.57
2022-08-29T06:25:39.895Z,15.52
2022-08-29T06:26:37.227Z,15.58
2022-08-29T06:27:37.224Z,15.49
2022-08-29T06:28:37.222Z,15.65
2022-08-29T06:29:43.048Z,15.57
2022-08-29T06:30:37.297Z,15.72
2022-08-29T06:31:37.229Z,15.79
2022-08-29T06:32:37.200Z,15.88
2022-08-29T06:33:37.199Z,15.88
2022-08-29T06:34:37.196Z,16.02
2022-08-29T06:35:37.190Z,16.09
2022-08-29T06:36:37.345Z,16.29
2022-08-29T06:37:37.183Z,16.32
2022-08-29T06:38:37.183Z,16.32
2022-08-29T06:39:37.174Z,16.31
2022-08-29T06:40:37.260Z,16.33
2022-08-29T06:41:37.165Z,16.38
2022-08-29T06:42:37.162Z,16.46
2022-08-29T06:43:37.155Z,16.50
2022-08-29T06:44:39.285Z,16.43
2022-08-29T06:45:37.145Z,16.56
2022-08-29T06:46:37.185Z,16.69
2022-08-29T06:47:37.142Z,16.71
2022-08-29T06:48:37.129Z,16.68
2022-08-29T06:49:37.135Z,16.68
2022-08-29T06:50:37.126Z,16.75
2022-08-29T06:51:37.122Z,16.79
2022-08-29T06:52:37.117Z,16.78
2022-08-29T06:53:37.665Z,16.74
2022-08-29T06:54:37.110Z,16.76
2022-08-29T06:55:37.106Z,16.76
2022-08-29T06:56:37.425Z,16.79
2022-08-29T06:57:37.096Z,16.78
2022-08-29T06:58:37.093Z,16.75
2022-08-29T06:59:37.090Z,16.79
2022-08-29T07:00:37.087Z,16.86
2022-08-29T07:01:37.103Z,16.83
2022-08-29T07:02:37.102Z,16.90
2022-08-29T07:03:37.073Z,16.91
2022-08-29T07:04:37.070Z,17.02
2022-08-29T07:05:37.065Z,16.93
2022-08-29T07:06:37.063Z,16.86
2022-08-29T07:07:37.058Z,16.94
2022-08-29T07:08:40.862Z,16.97
2022-08-29T07:09:37.051Z,16.91
2022-08-29T07:10:37.083Z,17.01
2022-08-29T07:11:40.975Z,16.81
2022-08-29T07:12:37.038Z,17.01
2022-08-29T07:13:37.037Z,17.04
2022-08-29T07:14:37.032Z,17.01
2022-08-29T07:15:37.054Z,17.01
2022-08-29T07:16:37.026Z,17.01
2022-08-29T07:17:37.020Z,17.05
2022-08-29T07:18:37.016Z,17.04
2022-08-29T07:19:37.023Z,17.02
2022-08-29T07:20:37.009Z,17.15
2022-08-29T07:21:37.011Z,17.14
2022-08-29T07:22:37.001Z,17.20
2022-08-29T07:23:36.997Z,17.09
2022-08-29T07:24:36.992Z,17.11
2022-08-29T07:25:36.990Z,17.24
2022-08-29T07:26:36.996Z,17.22
2022-08-29T07:27:36.981Z,17.30
2022-08-29T07:28:36.982Z,17.20
2022-08-29T07:29:36.976Z,17.23
2022-08-29T07:30:36.994Z,17.24
2022-08-29T07:31:36.973Z,17.29
2022-08-29T07:32:36.964Z,17.29
2022-08-29T07:33:36.960Z,17.36
2022-08-29T07:34:36.956Z,17.39
2022-08-29T07:35:36.956Z,17.36
2022-08-29T07:36:36.948Z,17.45
2022-08-29T07:37:36.945Z,17.46
2022-08-29T07:38:36.941Z,17.49
2022-08-29T07:39:36.937Z,17.41
2022-08-29T07:40:37.136Z,17.42
2022-08-29T07:41:36.931Z,17.45
2022-08-29T07:42:36.932Z,17.46
2022-08-29T07:43:36.928Z,17.48
2022-08-29T07:44:36.919Z,17.49
2022-08-29T07:45:36.929Z,17.56
2022-08-29T07:46:36.910Z,17.64
2022-08-29T07:47:36.913Z,17.57
2022-08-29T07:48:36.906Z,17.64
2022-08-29T07:49:41.575Z,17.76
2022-08-29T07:50:36.903Z,17.89
2022-08-29T07:51:36.895Z,17.98
2022-08-29T07:52:36.892Z,17.98
2022-08-29T07:53:36.899Z,18.07
2022-08-29T07:54:36.885Z,18.04
2022-08-29T07:55:36.884Z,18.00
2022-08-29T07:56:38.077Z,18.08
2022-08-29T07:57:37.013Z,18.19
2022-08-29T07:58:36.878Z,18.34
2022-08-29T07:59:36.869Z,18.52
2022-08-29T08:00:36.866Z,18.62
2022-08-29T08:01:36.931Z,18.70
2022-08-29T08:02:36.919Z,18.63
2022-08-29T08:03:36.859Z,18.71
2022-08-29T08:04:36.853Z,18.83
2022-08-29T08:05:36.855Z,18.80
2022-08-29T08:06:36.848Z,18.80
2022-08-29T08:07:36.844Z,18.83
2022-08-29T08:08:36.863Z,18.88
2022-08-29T08:09:36.842Z,18.83
2022-08-29T08:10:36.838Z,18.81
2022-08-29T08:11:36.887Z,18.99
2022-08-29T08:12:36.831Z,18.93
2022-08-29T08:13:36.832Z,18.96
2022-08-29T08:14:36.832Z,18.93
2022-08-29T08:15:36.823Z,18.96
2022-08-29T08:16:36.864Z,18.81
2022-08-29T08:17:39.819Z,18.75
2022-08-29T08:18:36.814Z,18.80
2022-08-29T08:19:36.832Z,18.88
2022-08-29T08:20:36.812Z,18.86
2022-08-29T08:21:36.809Z,18.83
2022-08-29T08:22:36.806Z,18.77
2022-08-29T08:23:36.803Z,18.93
2022-08-29T08:24:36.800Z,18.98
2022-08-29T08:25:36.802Z,18.89
2022-08-29T08:26:36.797Z,18.96
2022-08-29T08:27:41.048Z,19.00
2022-08-29T08:28:36.790Z,18.96
2022-08-29T08:29:36.789Z,19.00
2022-08-29T08:30:36.846Z,18.95
2022-08-29T08:31:36.888Z,18.83
2022-08-29T08:32:36.782Z,18.65
2022-08-29T08:33:36.777Z,18.53
2022-08-29T08:34:36.775Z,18.37
2022-08-29T08:35:36.774Z,18.35
2022-08-29T08:36:40.766Z,18.40
2022-08-29T08:37:36.765Z,18.37
2022-08-29T08:38:36.764Z,18.38
2022-08-29T08:39:36.764Z,18.47
2022-08-29T08:40:36.920Z,18.63
2022-08-29T08:41:36.757Z,18.65
2022-08-29T08:42:36.756Z,18.68
2022-08-29T08:43:36.760Z,18.73
2022-08-29T08:44:36.748Z,18.73
2022-08-29T08:45:36.797Z,18.84
2022-08-29T08:46:36.750Z,18.98
2022-08-29T08:47:36.749Z,18.88
2022-08-29T08:48:36.740Z,18.80
2022-08-29T08:49:36.740Z,18.84
2022-08-29T08:50:36.740Z,18.98
2022-08-29T08:51:36.734Z,18.98
2022-08-29T08:52:36.732Z,19.08
2022-08-29T08:53:36.726Z,19.11
2022-08-29T08:54:36.735Z,19.21
2022-08-29T08:55:36.723Z,19.30
2022-08-29T08:56:36.720Z,19.41
2022-08-29T08:57:36.728Z,19.41
2022-08-29T08:58:36.719Z,19.45
2022-08-29T08:59:36.714Z,19.39
2022-08-29T09:00:36.713Z,19.33
2022-08-29T09:01:36.767Z,19.19
2022-08-29T09:02:36.799Z,19.14
2022-08-29T09:03:36.705Z,19.18
2022-08-29T09:04:36.727Z,19.24
2022-08-29T09:05:36.706Z,19.21
2022-08-29T09:06:36.700Z,19.30
2022-08-29T09:07:36.697Z,19.31
2022-08-29T09:08:36.695Z,19.36
2022-08-29T09:09:36.694Z,19.19
2022-08-29T09:10:36.692Z,19.16
2022-08-29T09:11:36.691Z,19.21
2022-08-29T09:12:36.685Z,19.30
2022-08-29T09:13:36.692Z,19.30
2022-08-29T09:14:36.692Z,19.37
2022-08-29T09:15:36.681Z,19.47
2022-08-29T09:16:36.702Z,19.37
2022-08-29T09:17:36.677Z,19.44
2022-08-29T09:18:36.673Z,19.45
2022-08-29T09:19:36.675Z,19.54
2022-08-29T09:20:36.672Z,19.52
2022-08-29T09:21:41.026Z,19.67
2022-08-29T09:22:36.669Z,19.70
2022-08-29T09:23:36.665Z,19.85
2022-08-29T09:24:36.670Z,19.86
2022-08-29T09:25:36.660Z,20.06
2022-08-29T09:26:36.660Z,20.07
2022-08-29T09:27:36.660Z,20.16
2022-08-29T09:28:36.655Z,20.18
2022-08-29T09:29:36.657Z,20.22
2022-08-29T09:30:36.655Z,20.19
2022-08-29T09:31:36.716Z,20.18
2022-08-29T09:32:36.650Z,20.26
2022-08-29T09:33:36.647Z,20.21
2022-08-29T09:34:57.411Z,20.11
2022-08-29T09:35:36.648Z,20.11
2022-08-29T09:36:36.642Z,20.11
2022-08-29T09:37:36.644Z,20.14
2022-08-29T09:38:36.639Z,20.13
2022-08-29T09:39:36.635Z,20.14
2022-08-29T09:40:36.699Z,20.19
2022-08-29T09:41:36.633Z,20.21
2022-08-29T09:42:36.632Z,20.19
2022-08-29T09:43:36.636Z,20.25
2022-08-29T09:44:36.629Z,20.16
2022-08-29T09:45:36.684Z,20.22
2022-08-29T09:46:36.626Z,20.21
2022-08-29T09:47:36.622Z,20.13
2022-08-29T09:48:36.633Z,20.13
2022-08-29T09:49:36.622Z,20.16
2022-08-29T09:50:36.619Z,20.18
2022-08-29T09:51:36.616Z,20.25
2022-08-29T09:52:36.615Z,20.25
2022-08-29T09:53:36.610Z,20.40
2022-08-29T09:54:36.619Z,20.43
2022-08-29T09:55:36.606Z,20.63
2022-08-29T09:56:36.609Z,20.58
2022-08-29T09:57:36.608Z,20.47
2022-08-29T09:58:39.913Z,20.58
2022-08-29T09:59:36.605Z,20.58
2022-08-29T10:00:36.631Z,20.56
2022-08-29T10:01:37.319Z,20.40
2022-08-29T10:02:36.644Z,20.39
2022-08-29T10:03:36.597Z,20.43
2022-08-29T10:04:36.601Z,20.37
2022-08-29T10:05:36.596Z,20.25
2022-08-29T10:06:40.062Z,20.40
2022-08-29T10:07:37.857Z,20.41
2022-08-29T10:08:36.591Z,20.52
2022-08-29T10:09:36.590Z,20.62
2022-08-29T10:10:36.592Z,20.66
2022-08-29T10:11:36.585Z,20.72
2022-08-29T10:12:36.584Z,20.67
2022-08-29T10:13:36.582Z,20.77
2022-08-29T10:14:36.584Z,20.85
2022-08-29T10:15:51.808Z,20.84
2022-08-29T10:16:36.646Z,20.78
2022-08-29T10:17:36.579Z,20.77
2022-08-29T10:18:36.581Z,20.75
2022-08-29T10:19:36.583Z,20.69
2022-08-29T10:20:36.579Z,20.69
2022-08-29T10:21:36.572Z,20.69
2022-08-29T10:22:36.578Z,20.70
2022-08-29T10:23:36.575Z,20.66
2022-08-29T10:24:36.569Z,20.77
2022-08-29T10:25:36.569Z,20.84
2022-08-29T10:26:36.569Z,21.03
2022-08-29T10:27:36.566Z,20.90
2022-08-29T10:28:36.563Z,20.78
2022-08-29T10:29:36.563Z,20.74
2022-08-29T10:30:36.581Z,20.90
2022-08-29T10:31:36.610Z,20.95
2022-08-29T10:32:36.563Z,20.85
2022-08-29T10:33:36.557Z,20.99
2022-08-29T10:34:36.556Z,21.06
2022-08-29T10:35:36.563Z,20.96
2022-08-29T10:36:36.601Z,20.95
2022-08-29T10:37:36.556Z,20.88
2022-08-29T10:38:36.551Z,20.81
2022-08-29T10:39:36.553Z,20.81
2022-08-29T10:40:36.642Z,20.78
2022-08-29T10:41:36.549Z,20.85
2022-08-29T10:42:36.547Z,20.77
2022-08-29T10:43:36.546Z,20.77
2022-08-29T10:44:36.543Z,20.74
2022-08-29T10:45:36.638Z,20.80
2022-08-29T10:46:36.544Z,20.80
2022-08-29T10:47:36.542Z,20.92
2022-08-29T10:48:36.555Z,20.90
2022-08-29T10:49:36.538Z,20.75
2022-08-29T10:50:45.252Z,20.85
2022-08-29T10:51:36.531Z,21.07
2022-08-29T10:52:36.533Z,21.06
2022-08-29T10:53:36.534Z,21.15
2022-08-29T10:54:36.531Z,21.30
2022-08-29T10:55:36.527Z,21.42
2022-08-29T10:56:36.528Z,21.32
2022-08-29T10:57:36.557Z,21.42
2022-08-29T10:58:36.530Z,21.48
2022-08-29T10:59:36.526Z,21.48
2022-08-29T11:00:36.576Z,21.52
2022-08-29T11:01:36.574Z,21.51
2022-08-29T11:02:36.526Z,21.58
2022-08-29T11:03:36.593Z,21.69
2022-08-29T11:04:36.520Z,21.75
2022-08-29T11:05:36.519Z,21.69
2022-08-29T11:07:36.518Z,21.57
2022-08-29T11:08:36.515Z,21.52
2022-08-29T11:09:36.537Z,21.54
2022-08-29T11:10:36.513Z,21.52
2022-08-29T11:11:36.515Z,21.60
2022-08-29T11:12:36.514Z,21.50
2022-08-29T11:13:36.517Z,21.54
2022-08-29T11:14:36.511Z,21.64
2022-08-29T11:15:36.512Z,21.73
2022-08-29T11:16:36.552Z,21.75
2022-08-29T11:17:36.505Z,21.83
2022-08-29T11:18:36.506Z,21.89
2022-08-29T11:19:36.505Z,21.99
2022-08-29T11:20:36.503Z,22.22
2022-08-29T11:21:36.511Z,22.38
2022-08-29T11:22:36.504Z,22.44
2022-08-29T11:23:36.502Z,22.62
2022-08-29T11:24:38.009Z,22.60
2022-08-29T11:25:36.502Z,22.73
2022-08-29T11:26:36.501Z,22.84
2022-08-29T11:27:36.499Z,22.99
2022-08-29T11:28:36.516Z,23.00
2022-08-29T11:29:36.494Z,22.99
2022-08-29T11:30:40.313Z,23.02
2022-08-29T11:31:36.525Z,23.06
2022-08-29T11:32:36.496Z,23.00
2022-08-29T11:33:36.496Z,22.84
2022-08-29T11:34:36.495Z,22.72
2022-08-29T11:35:36.497Z,22.68
2022-08-29T11:36:36.496Z,22.70
2022-08-29T11:37:36.497Z,22.70
2022-08-29T11:38:36.494Z,22.66
2022-08-29T11:39:36.491Z,22.54
2022-08-29T11:41:36.551Z,22.65
2022-08-29T11:42:52.389Z,22.69
2022-08-29T11:43:36.493Z,22.73
2022-08-29T11:44:36.491Z,22.78
2022-08-29T11:45:37.679Z,22.76
2022-08-29T11:46:36.536Z,22.66
2022-08-29T11:47:40.892Z,22.55
2022-08-29T11:48:36.502Z,22.65
2022-08-29T11:49:36.492Z,22.57
2022-08-29T11:50:36.487Z,22.54
2022-08-29T11:51:36.583Z,22.57
2022-08-29T11:52:36.489Z,22.51
2022-08-29T11:53:36.486Z,22.36
2022-08-29T11:54:36.489Z,22.43
2022-08-29T11:55:36.486Z,22.36
2022-08-29T11:56:36.487Z,22.36
2022-08-29T11:57:36.488Z,22.45
2022-08-29T11:58:36.487Z,22.45
2022-08-29T11:59:36.486Z,22.41
2022-08-29T12:00:36.490Z,22.41
2022-08-29T12:01:36.485Z,22.30
2022-08-29T12:02:36.492Z,22.26
2022-08-29T12:03:36.966Z,22.35
2022-08-29T12:04:36.534Z,22.22
2022-08-29T12:05:36.492Z,22.22
2022-08-29T12:06:36.498Z,22.32
2022-08-29T12:07:36.486Z,22.44
2022-08-29T12:08:37.751Z,22.50
2022-08-29T12:09:36.488Z,22.54
2022-08-29T12:10:36.481Z,22.69
2022-08-29T12:11:36.483Z,22.73
2022-08-29T12:12:36.480Z,22.88
2022-08-29T12:13:36.485Z,22.94
2022-08-29T12:14:37.976Z,23.05
2022-08-29T12:15:36.482Z,23.13
2022-08-29T12:16:36.528Z,23.13
2022-08-29T12:18:00.361Z,23.06
2022-08-29T12:18:36.948Z,22.93
2022-08-29T12:19:36.482Z,22.88
2022-08-29T12:20:36.501Z,22.94
2022-08-29T12:21:36.480Z,22.90
2022-08-29T12:22:36.519Z,23.00
2022-08-29T12:23:36.570Z,23.00
2022-08-29T12:24:36.479Z,23.02
2022-08-29T12:25:36.480Z,23.00
2022-08-29T12:26:36.479Z,23.03
2022-08-29T12:27:36.480Z,23.02
2022-08-29T12:28:36.479Z,23.05
2022-08-29T12:29:41.133Z,22.91
2022-08-29T12:30:36.494Z,22.72
2022-08-29T12:31:36.512Z,22.72
2022-08-29T12:32:40.171Z,22.72
2022-08-29T12:33:36.484Z,22.68
2022-08-29T12:34:36.477Z,22.83
2022-08-29T12:35:36.476Z,22.87
2022-08-29T12:36:36.494Z,22.93
2022-08-29T12:37:36.480Z,22.96
2022-08-29T12:38:40.089Z,23.03
2022-08-29T12:39:36.476Z,23.10
2022-08-29T12:40:36.592Z,23.09
2022-08-29T12:41:36.475Z,23.13
2022-08-29T12:42:36.480Z,23.17
2022-08-29T12:43:36.473Z,23.23
2022-08-29T12:44:36.476Z,23.27
2022-08-29T12:45:36.472Z,23.31
2022-08-29T12:46:36.547Z,23.25
2022-08-29T12:47:36.476Z,23.31
2022-08-29T12:48:36.474Z,23.28
2022-08-29T12:49:36.476Z,23.31
2022-08-29T12:50:36.474Z,23.44
2022-08-29T12:51:36.472Z,23.51
2022-08-29T12:52:36.473Z,23.59
2022-08-29T12:53:36.473Z,23.68
2022-08-29T12:54:36.474Z,23.76
2022-08-29T12:55:36.470Z,23.91
2022-08-29T12:56:36.474Z,23.91